Terminal Aerodrome Forecast
Issued by NWS

Home | Current Version | Previous Version | Text Only | Print | Product List | Glossary On
Versions: 1 2 3 4 5 6 7 8 9 10 11 12
000
FTUS44 KEPZ 172300
TAFLRU
TAF
KLRU 172333Z 1800/1824 25015G25KT P6SM SCT060
     FM180200 26010KT P6SM FEW050 SCT200
     FM181200 30004KT P6SM SCT050 OVC130
     FM182000 22006KT P6SM SCT060 BKN120=

USA.gov is the U.S. government's official web portal to all federal, state and local government web resources and services.